Time;durP1;ratioP1;P1;durP2;ratioP2;P2;SDS_P1;SDS_P2;PMS_P1;PMS_P2;Temp;Humidity;BMP_temperature;BMP_pressure;BME280_temperature;BME280_humidity;BME280_pressure;Samples;Min_cycle;Max_cycle;Signal;HPM_P1;HPM_P2
2023/05/24 00:01:30;;;;;;;13.40;3.65;;;;;;;7.45;99.18;102440.97;5034694;28;20029;-72
2023/05/24 00:03:59;;;;;;;18.80;3.47;;;;;;;7.36;99.08;102439.13;5035181;28;20033;-72
2023/05/24 00:06:26;;;;;;;12.48;3.70;;;;;;;7.22;100.00;102438.88;5035313;28;20036;-72
2023/05/24 00:08:52;;;;;;;19.27;3.67;;;;;;;7.17;100.00;102439.69;5034200;28;20100;-72
2023/05/24 00:11:17;;;;;;;19.15;3.80;;;;;;;7.05;100.00;102435.16;5035005;28;20025;-72
2023/05/24 00:13:43;;;;;;;18.60;4.18;;;;;;;7.02;100.00;102441.16;5033989;28;20033;-72
2023/05/24 00:16:08;;;;;;;24.05;3.80;;;;;;;6.97;100.00;102434.16;5035169;28;20029;-72
2023/05/24 00:18:34;;;;;;;16.17;3.70;;;;;;;6.81;100.00;102412.28;5036487;28;22913;-72
2023/05/24 00:20:59;;;;;;;17.77;4.15;;;;;;;6.87;100.00;102424.50;5031939;28;20068;-72
2023/05/24 00:23:25;;;;;;;19.65;3.72;;;;;;;6.80;100.00;102420.88;5034774;28;20014;-72
2023/05/24 00:25:51;;;;;;;16.63;4.20;;;;;;;6.78;100.00;102433.84;5044098;28;20029;-72
2023/05/24 00:28:16;;;;;;;15.02;4.10;;;;;;;6.70;100.00;102419.88;5036308;28;20124;-72
2023/05/24 00:30:42;;;;;;;9.57;3.67;;;;;;;6.64;100.00;102417.19;5033476;28;20105;-72
2023/05/24 00:33:07;;;;;;;12.35;3.90;;;;;;;6.65;100.00;102415.47;5035121;28;20076;-72
2023/05/24 00:35:33;;;;;;;14.07;4.25;;;;;;;6.66;100.00;102424.97;5033965;28;20044;-72
2023/05/24 00:37:58;;;;;;;12.60;3.75;;;;;;;6.62;100.00;102418.00;5034636;28;20029;-72
2023/05/24 00:40:23;;;;;;;16.13;3.80;;;;;;;6.61;100.00;102411.94;5034527;28;20105;-72
2023/05/24 00:42:49;;;;;;;19.40;4.22;;;;;;;6.64;100.00;102417.19;5033664;28;20053;-72
2023/05/24 00:45:14;;;;;;;15.40;4.18;;;;;;;6.55;100.00;102407.50;5034908;28;20022;-72
2023/05/24 00:47:39;;;;;;;14.90;4.03;;;;;;;6.60;100.00;102407.56;5034265;28;20527;-72
2023/05/24 00:50:07;;;;;;;10.13;3.67;;;;;;;6.56;100.00;102408.38;5033828;28;20033;-72
2023/05/24 00:52:32;;;;;;;14.27;4.68;;;;;;;6.49;100.00;102407.41;5034459;28;20022;-72
2023/05/24 00:54:58;;;;;;;15.95;4.57;;;;;;;6.54;100.00;102410.09;5034431;28;20386;-72
2023/05/24 00:57:23;;;;;;;16.13;4.20;;;;;;;6.50;100.00;102413.44;5033720;28;20110;-72
2023/05/24 00:59:49;;;;;;;10.88;4.00;;;;;;;6.42;100.00;102410.72;5033836;28;20032;-72
2023/05/24 01:02:15;;;;;;;15.45;4.20;;;;;;;6.38;100.00;102411.53;5034608;28;20500;-72
2023/05/24 01:04:41;;;;;;;14.48;5.10;;;;;;;6.30;100.00;102408.75;5033380;28;20111;-73
2023/05/24 01:07:25;;;;;;;13.82;4.18;;;;;;;6.31;100.00;102407.94;5034505;28;20079;-72
2023/05/24 01:10:21;;;;;;;14.68;3.60;;;;;;;6.32;100.00;102417.44;5033800;28;20037;-72
2023/05/24 01:12:58;;;;;;;11.43;4.15;;;;;;;6.31;100.00;102407.94;5033811;28;20030;-72
2023/05/24 01:15:59;;;;;;;10.45;4.30;;;;;;;6.28;100.00;102399.25;5033923;28;20461;-72
2023/05/24 01:18:30;;;;;;;10.52;3.78;;;;;;;6.26;100.00;102399.19;5031851;28;20038;-72
2023/05/24 01:21:13;;;;;;;15.48;4.18;;;;;;;6.21;100.00;102399.94;5033789;28;20021;-72
2023/05/24 01:24:16;;;;;;;11.75;4.22;;;;;;;6.15;100.00;102400.72;5033842;28;20096;-72
2023/05/24 01:27:06;;;;;;;12.25;3.80;;;;;;;6.10;100.00;102400.59;5033549;28;20021;-72
2023/05/24 01:29:33;;;;;;;15.10;4.80;;;;;;;6.02;100.00;102397.00;5034074;28;20033;-72
2023/05/24 01:31:59;;;;;;;12.40;4.57;;;;;;;5.96;100.00;102390.84;5032666;28;20025;-72
2023/05/24 01:34:25;;;;;;;14.40;3.97;;;;;;;5.91;100.00;102398.44;5033713;28;20025;-72
2023/05/24 01:36:50;;;;;;;14.13;4.35;;;;;;;5.86;100.00;102395.78;5032848;28;20029;-72
2023/05/24 01:39:16;;;;;;;15.88;4.97;;;;;;;5.83;100.00;102403.47;5032840;28;20024;-72
2023/05/24 01:41:55;;;;;;;12.48;4.55;;;;;;;5.85;100.00;102400.91;5035859;28;20033;-72
2023/05/24 01:44:35;;;;;;;16.45;4.45;;;;;;;5.81;100.00;102393.94;5031946;28;20033;-72
2023/05/24 01:47:09;;;;;;;10.57;4.35;;;;;;;5.74;100.00;102407.59;5032104;28;20472;-72
2023/05/24 01:49:41;;;;;;;13.98;4.55;;;;;;;5.67;100.00;102393.66;5033537;28;20038;-72
2023/05/24 01:52:14;;;;;;;13.60;3.97;;;;;;;5.61;100.00;102384.03;5043278;28;20537;-72
2023/05/24 01:54:44;;;;;;;10.75;4.32;;;;;;;5.53;100.00;102383.00;5033153;28;20049;-72
2023/05/24 01:57:10;;;;;;;14.38;5.18;;;;;;;5.53;100.00;102387.31;5032331;28;20538;-72
2023/05/24 01:59:39;;;;;;;17.30;5.00;;;;;;;5.47;100.00;102382.88;5031392;28;20030;-72
2023/05/24 02:02:04;;;;;;;10.77;4.18;;;;;;;5.43;100.00;102391.41;5033227;28;20040;-72
2023/05/24 02:04:30;;;;;;;12.80;4.45;;;;;;;5.41;100.00;102390.47;5032993;28;20377;-72
2023/05/24 02:06:55;;;;;;;16.48;4.82;;;;;;;5.37;100.00;102396.44;5042366;28;20033;-72
2023/05/24 02:09:20;;;;;;;15.20;4.93;;;;;;;5.26;100.00;102383.22;5035292;28;20041;-72
2023/05/24 02:11:46;;;;;;;10.50;4.07;;;;;;;5.32;100.00;102392.84;5034263;28;20124;-72
2023/05/24 02:14:12;;;;;;;14.45;4.82;;;;;;;5.30;100.00;102392.84;5031297;28;20376;-72
2023/05/24 02:16:41;;;;;;;17.35;5.18;;;;;;;5.32;100.00;102401.47;5020431;28;20026;-73
2023/05/24 02:19:09;;;;;;;13.70;5.18;;;;;;;5.27;100.00;102394.47;5032730;28;20025;-72
2023/05/24 02:21:35;;;;;;;13.98;4.68;;;;;;;5.24;100.00;102390.09;5033251;28;20038;-72
2023/05/24 02:24:00;;;;;;;13.13;4.85;;;;;;;5.25;100.00;102399.59;5032738;28;20079;-72
2023/05/24 02:26:25;;;;;;;13.65;4.65;;;;;;;5.20;100.00;102388.28;5042353;28;20029;-72
2023/05/24 02:28:51;;;;;;;14.27;4.75;;;;;;;5.23;100.00;102398.72;5030763;28;20025;-73
2023/05/24 02:31:16;;;;;;;12.38;4.70;;;;;;;5.25;100.00;102396.13;5032961;28;20033;-73
2023/05/24 02:33:42;;;;;;;9.27;4.00;;;;;;;5.21;100.00;102402.97;5032438;28;20377;-72
2023/05/24 02:36:07;;;;;;;13.43;5.00;;;;;;;5.16;100.00;102397.66;5033075;28;20030;-72
2023/05/24 02:38:33;;;;;;;11.85;4.82;;;;;;;5.18;100.00;102408.06;5036321;28;20037;-72
2023/05/24 02:40:58;;;;;;;11.82;4.63;;;;;;;5.09;100.00;102389.72;5032662;28;20496;-72
2023/05/24 02:43:23;;;;;;;11.95;4.15;;;;;;;5.10;100.00;102396.63;5030268;28;20061;-72
2023/05/24 02:45:48;;;;;;;14.35;4.78;;;;;;;5.06;100.00;102398.28;5032332;28;20381;-72
2023/05/24 02:48:14;;;;;;;14.77;5.05;;;;;;;4.97;100.00;102384.25;5031564;28;20050;-72
2023/05/24 02:50:39;;;;;;;14.88;4.95;;;;;;;5.03;100.00;102392.16;5030232;28;20501;-72
2023/05/24 02:53:05;;;;;;;17.35;5.22;;;;;;;5.02;100.00;102403.34;5030784;28;20447;-73
2023/05/24 02:55:31;;;;;;;14.10;5.53;;;;;;;5.04;100.00;102401.69;5031406;28;20033;-72
2023/05/24 02:57:56;;;;;;;13.18;5.05;;;;;;;5.04;100.00;102410.31;5032168;28;20022;-72
2023/05/24 03:00:22;;;;;;;13.07;4.75;;;;;;;5.04;100.00;102407.72;5032265;28;20044;-72
2023/05/24 03:02:49;;;;;;;13.88;4.78;;;;;;;5.02;100.00;102411.09;5031472;28;20793;-72
2023/05/24 03:05:15;;;;;;;14.52;4.35;;;;;;;4.96;100.00;102401.47;5032368;28;20082;-72
2023/05/24 03:07:41;;;;;;;15.60;5.25;;;;;;;4.98;100.00;102402.41;5031743;28;20029;-72
2023/05/24 03:10:07;;;;;;;15.07;4.65;;;;;;;4.96;100.00;102408.38;5031623;28;20025;-72
2023/05/24 03:12:32;;;;;;;14.10;4.90;;;;;;;4.94;100.00;102405.75;5032054;28;20435;-72
2023/05/24 03:14:57;;;;;;;15.30;5.45;;;;;;;4.92;100.00;102412.59;5031953;28;20036;-72
2023/05/24 03:17:23;;;;;;;16.67;4.53;;;;;;;4.88;100.00;102405.59;5031696;28;20025;-72
2023/05/24 03:19:48;;;;;;;14.63;5.07;;;;;;;4.76;100.00;102390.66;5031744;28;20536;-72
2023/05/24 03:22:13;;;;;;;9.65;4.47;;;;;;;4.78;100.00;102401.03;5032089;28;20065;-72
2023/05/24 03:24:39;;;;;;;13.35;4.93;;;;;;;4.80;100.00;102397.63;5031084;28;20016;-72
2023/05/24 03:27:05;;;;;;;15.27;5.10;;;;;;;4.78;100.00;102401.03;5032135;28;20025;-72
2023/05/24 03:29:31;;;;;;;16.55;5.15;;;;;;;4.67;100.00;102393.00;5032291;28;20038;-72
2023/05/24 03:31:56;;;;;;;12.02;4.72;;;;;;;4.69;100.00;102393.94;5030990;28;20029;-72
2023/05/24 03:34:21;;;;;;;17.75;5.78;;;;;;;4.64;100.00;102398.09;5032156;28;20029;-72
2023/05/24 03:36:47;;;;;;;12.45;4.60;;;;;;;4.66;100.00;102393.84;5031793;28;20025;-72
2023/05/24 03:39:12;;;;;;;12.57;4.95;;;;;;;4.60;100.00;102384.22;5031459;28;20023;-72
2023/05/24 03:41:37;;;;;;;14.07;5.00;;;;;;;4.69;100.00;102391.34;5032031;28;20022;-72
2023/05/24 03:44:03;;;;;;;19.52;6.05;;;;;;;4.68;100.00;102394.78;5031811;28;20346;-72
2023/05/24 03:46:28;;;;;;;14.30;5.05;;;;;;;4.66;100.00;102388.69;5031241;28;20045;-72
2023/05/24 03:48:54;;;;;;;12.15;4.90;;;;;;;4.65;100.00;102392.09;5031480;28;20025;-72
2023/05/24 03:51:19;;;;;;;19.80;5.60;;;;;;;4.62;100.00;102392.03;5031889;28;20424;-72
2023/05/24 03:53:44;;;;;;;12.65;6.03;;;;;;;4.60;100.00;102391.97;5030804;28;20458;-72
2023/05/24 03:56:10;;;;;;;13.35;5.22;;;;;;;4.63;100.00;102394.63;5032053;28;20025;-72
2023/05/24 03:58:36;;;;;;;13.95;5.97;;;;;;;4.64;100.00;102390.34;5032074;28;20029;-72
2023/05/24 04:01:02;;;;;;;13.57;5.88;;;;;;;4.68;100.00;102397.34;5033477;28;20025;-72
2023/05/24 04:03:27;;;;;;;16.10;5.38;;;;;;;4.72;100.00;102396.59;5033427;28;20148;-72
2023/05/24 04:05:52;;;;;;;13.55;4.90;;;;;;;4.66;100.00;102383.50;5031497;28;20057;-72
2023/05/24 04:08:18;;;;;;;21.20;5.82;;;;;;;4.72;100.00;102385.38;5035242;28;20101;-72
2023/05/24 04:10:43;;;;;;;19.92;5.88;;;;;;;4.75;100.00;102394.09;5034931;28;20121;-72
2023/05/24 04:13:09;;;;;;;13.32;5.68;;;;;;;4.78;100.00;102383.84;5034791;28;20017;-72
2023/05/24 04:15:34;;;;;;;14.82;5.47;;;;;;;4.85;100.00;102392.59;5035290;28;20025;-72
2023/05/24 04:18:01;;;;;;;19.08;5.30;;;;;;;4.88;100.00;102385.81;5034421;28;20104;-72
2023/05/24 04:20:28;;;;;;;15.50;5.88;;;;;;;4.95;100.00;102386.81;5033550;28;20026;-72
2023/05/24 04:22:54;;;;;;;13.20;5.55;;;;;;;5.00;100.00;102390.38;5034726;28;20021;-72
2023/05/24 04:25:21;;;;;;;14.95;5.97;;;;;;;5.06;100.00;102400.88;5035238;28;20030;-72
2023/05/24 04:27:47;;;;;;;11.38;6.00;;;;;;;5.04;100.00;102392.22;5034119;28;20021;-73
2023/05/24 04:30:14;;;;;;;18.52;6.28;;;;;;;5.16;100.00;102407.13;5034761;28;20075;-72
2023/05/24 04:32:40;;;;;;;16.77;6.60;;;;;;;5.21;100.00;102402.97;5034707;28;20025;-72
2023/05/24 04:35:06;;;;;;;17.60;5.88;;;;;;;5.25;100.00;102397.00;5033942;28;20024;-72
2023/05/24 04:37:32;;;;;;;15.65;6.50;;;;;;;5.27;100.00;102387.59;5034704;28;20029;-72
2023/05/24 04:39:57;;;;;;;19.92;6.78;;;;;;;5.33;100.00;102397.19;5034530;28;20104;-72
2023/05/24 04:42:22;;;;;;;13.20;6.35;;;;;;;5.43;100.00;102395.69;5033913;28;20476;-72
2023/05/24 04:44:48;;;;;;;18.45;6.47;;;;;;;5.47;100.00;102395.81;5034292;28;20116;-72
2023/05/24 04:47:13;;;;;;;20.35;6.95;;;;;;;5.51;100.00;102395.03;5034032;28;20103;-72
2023/05/24 04:49:38;;;;;;;16.13;6.38;;;;;;;5.61;100.00;102403.84;5033523;28;20052;-73
2023/05/24 04:52:05;;;;;;;16.77;6.82;;;;;;;5.67;100.00;102406.59;5034700;28;20388;-72
2023/05/24 04:54:30;;;;;;;14.13;6.43;;;;;;;5.73;100.00;102392.91;5034767;28;20048;-72
2023/05/24 04:56:55;;;;;;;21.13;6.47;;;;;;;5.82;100.00;102401.75;5031627;28;20513;-72
2023/05/24 04:59:21;;;;;;;16.00;7.18;;;;;;;5.86;100.00;102392.31;5034296;28;20029;-72
2023/05/24 05:01:46;;;;;;;17.02;6.60;;;;;;;5.98;100.00;102399.47;5033915;28;20030;-72
2023/05/24 05:04:11;;;;;;;18.15;6.85;;;;;;;5.75;100.00;102353.25;5033458;28;20022;-72
2023/05/24 05:06:42;;;;;;;13.23;6.45;;;;;;;6.14;100.00;102396.34;5034519;28;20037;-72
2023/05/24 05:09:09;;;;;;;26.60;7.70;;;;;;;6.22;100.00;102402.56;5033295;28;20460;-72
2023/05/24 05:11:35;;;;;;;19.38;7.03;;;;;;;6.31;100.00;102400.16;5030915;28;20388;-72
2023/05/24 05:14:00;;;;;;;14.10;6.28;;;;;;;6.42;100.00;102389.13;5043257;28;20116;-72
2023/05/24 05:16:26;;;;;;;22.55;6.93;;;;;;;6.47;100.00;102392.66;5031872;28;20145;-72
2023/05/24 05:18:51;;;;;;;13.98;5.82;;;;;;;6.57;100.00;102394.56;5029068;28;20060;-71
2023/05/24 05:21:17;;;;;;;15.25;6.25;;;;;;;6.69;100.00;102404.28;5038047;28;20053;-72
2023/05/24 05:23:42;;;;;;;20.33;7.50;;;;;;;6.80;100.00;102406.22;5031390;28;20029;-72
2023/05/24 05:26:07;;;;;;;22.38;7.40;;;;;;;6.90;100.00;102406.38;5032768;28;20028;-72
2023/05/24 05:28:33;;;;;;;22.95;7.97;;;;;;;6.94;100.00;102393.50;5033637;28;20025;-72
2023/05/24 05:30:58;;;;;;;21.67;7.05;;;;;;;6.98;100.00;102387.50;5037640;28;20029;-72
2023/05/24 05:33:24;;;;;;;19.25;7.15;;;;;;;7.20;100.00;102408.59;5031515;28;20029;-72
2023/05/24 05:35:49;;;;;;;19.85;6.47;;;;;;;7.25;100.00;102397.44;5032210;28;20022;-72
2023/05/24 05:38:15;;;;;;;18.73;6.57;;;;;;;7.36;100.00;102407.13;5032701;28;20053;-72
2023/05/24 05:40:40;;;;;;;18.63;6.75;;;;;;;7.44;100.00;102402.91;5032947;28;20029;-72
2023/05/24 05:43:07;;;;;;;18.45;6.50;;;;;;;7.52;100.00;102401.28;5032570;28;20033;-72
2023/05/24 05:45:32;;;;;;;18.55;6.68;;;;;;;7.64;100.00;102393.66;5032748;28;20026;-72
2023/05/24 05:47:57;;;;;;;22.98;7.45;;;;;;;7.72;100.00;102397.25;5033226;28;20060;-72
2023/05/24 05:50:23;;;;;;;24.23;7.22;;;;;;;7.85;100.00;102395.69;5033504;28;20497;-72
2023/05/24 05:52:48;;;;;;;22.98;7.28;;;;;;;7.97;100.00;102403.59;5032739;28;20020;-72
2023/05/24 05:55:13;;;;;;;21.50;7.80;;;;;;;8.03;100.00;102400.22;5033442;28;20029;-72
2023/05/24 05:57:39;;;;;;;24.48;7.97;;;;;;;8.16;100.00;102412.47;5033117;28;20030;-72
2023/05/24 06:00:05;;;;;;;28.38;7.75;;;;;;;8.23;100.00;102404.75;5032632;28;20029;-72
2023/05/24 06:02:31;;;;;;;26.95;8.18;;;;;;;8.32;100.00;102417.88;5032840;28;20021;-72
2023/05/24 06:04:56;;;;;;;22.23;7.47;;;;;;;8.40;100.00;102416.22;5032848;28;20685;-72
2023/05/24 06:07:21;;;;;;;25.33;7.35;;;;;;;8.50;100.00;102412.91;5032468;28;20022;-72
2023/05/24 06:09:47;;;;;;;23.80;7.45;;;;;;;8.59;100.00;102406.91;5032773;28;20499;-72
2023/05/24 06:12:12;;;;;;;22.13;7.30;;;;;;;8.71;100.00;102421.75;5032810;28;20021;-72
2023/05/24 06:14:37;;;;;;;26.80;8.20;;;;;;;8.81;100.00;102418.38;5032065;28;20029;-72
2023/05/24 06:17:04;;;;;;;20.67;6.55;;;;;;;8.91;100.00;102428.88;5032805;28;20030;-72
2023/05/24 06:19:30;;;;;;;23.40;7.60;;;;;;;8.98;100.00;102423.72;5032142;28;20026;-72
2023/05/24 06:21:56;;;;;;;25.08;7.28;;;;;;;9.03;100.00;102416.84;5032856;28;20052;-72
2023/05/24 06:24:21;;;;;;;19.75;7.63;;;;;;;9.18;100.00;102423.88;5031700;28;20036;-72
2023/05/24 06:26:51;;;;;;;24.17;7.65;;;;;;;9.29;100.00;102427.47;5031687;28;20014;-72
2023/05/24 06:29:20;;;;;;;19.90;7.07;;;;;;;9.38;100.00;102423.19;5032738;28;20044;-72
2023/05/24 06:31:46;;;;;;;24.38;8.10;;;;;;;9.53;100.00;102431.94;5032175;28;20032;-72
2023/05/24 06:34:15;;;;;;;25.38;7.40;;;;;;;9.44;100.00;102398.03;5032189;28;20022;-72
2023/05/24 06:36:41;;;;;;;24.48;7.95;;;;;;;9.54;100.00;102411.09;5032258;28;20477;-72
2023/05/24 06:39:07;;;;;;;21.75;8.32;;;;;;;9.71;100.00;102428.56;5032683;28;20049;-72
2023/05/24 06:41:33;;;;;;;26.77;9.38;;;;;;;9.79;100.00;102426.88;5031984;28;20100;-72
2023/05/24 06:43:58;;;;;;;25.70;7.53;;;;;;;9.88;100.00;102429.53;5032114;28;20019;-72
2023/05/24 06:46:23;;;;;;;20.73;7.90;;;;;;;9.84;100.00;102412.13;5032216;28;20050;-72
2023/05/24 06:48:49;;;;;;;29.90;8.55;;;;;;;9.83;100.00;102423.44;5031629;28;20025;-72
2023/05/24 06:51:14;;;;;;;23.90;8.70;;;;;;;9.95;100.00;102425.22;5032669;28;20112;-72
2023/05/24 06:53:40;;;;;;;21.75;8.10;;;;;;;10.08;100.00;102422.66;5032219;28;20030;-72
2023/05/24 06:56:08;;;;;;;22.65;8.05;;;;;;;10.14;100.00;102420.97;5031627;28;20021;-72
2023/05/24 06:58:33;;;;;;;25.10;9.27;;;;;;;10.11;100.00;102426.16;5032299;28;20384;-72
2023/05/24 07:00:58;;;;;;;31.17;10.65;;;;;;;10.08;100.00;102424.41;5032139;28;20021;-72
2023/05/24 07:03:24;;;;;;;22.35;9.05;;;;;;;10.14;100.00;102431.41;5029692;28;20025;-72
2023/05/24 07:05:49;;;;;;;23.88;10.30;;;;;;;10.22;100.00;102435.75;5030790;28;20025;-72
2023/05/24 07:08:14;;;;;;;20.73;9.40;;;;;;;10.25;100.00;102437.50;5032235;28;20083;-72
2023/05/24 07:10:40;;;;;;;24.45;10.00;;;;;;;10.30;100.00;102433.22;5030176;28;20024;-73
2023/05/24 07:13:05;;;;;;;23.83;10.27;;;;;;;10.28;100.00;102438.41;5041974;28;20029;-74
2023/05/24 07:15:30;;;;;;;23.40;9.48;;;;;;;10.26;100.00;102427.09;5031732;28;20465;-74
2023/05/24 07:17:56;;;;;;;27.08;9.57;;;;;;;10.36;100.00;102433.22;5030333;28;20109;-72
2023/05/24 07:20:21;;;;;;;25.40;9.80;;;;;;;10.32;100.00;102424.50;5030133;28;20026;-72
2023/05/24 07:22:46;;;;;;;27.05;9.40;;;;;;;10.42;100.00;102424.53;5029825;28;20030;-74
2023/05/24 07:25:11;;;;;;;27.48;8.88;;;;;;;10.57;100.00;102429.81;5032393;28;20033;-75
2023/05/24 07:27:37;;;;;;;24.65;8.95;;;;;;;10.71;100.00;102435.03;5028204;28;20034;-73
2023/05/24 07:30:03;;;;;;;23.17;8.68;;;;;;;10.81;99.77;102434.16;5027660;28;20548;-74
2023/05/24 07:32:29;;;;;;;24.88;9.88;;;;;;;10.92;100.00;102444.59;5029764;28;20025;-71
2023/05/24 07:34:54;;;;;;;21.58;8.75;;;;;;;10.97;100.00;102437.66;5031963;28;20025;-72
2023/05/24 07:37:22;;;;;;;25.83;9.15;;;;;;;10.88;97.33;102425.47;5039194;28;20017;-72
2023/05/24 07:39:48;;;;;;;21.98;8.77;;;;;;;10.96;100.00;102439.41;5034953;28;20052;-74
2023/05/24 07:42:14;;;;;;;19.77;8.57;;;;;;;11.14;99.58;102432.44;5039265;28;20438;-73
2023/05/24 07:44:39;;;;;;;23.58;8.32;;;;;;;11.19;98.15;102442.00;5036142;28;20381;-73
2023/05/24 07:47:04;;;;;;;23.60;8.25;;;;;;;11.20;94.44;102442.88;5035184;28;20037;-73
2023/05/24 07:49:30;;;;;;;21.30;8.50;;;;;;;11.21;91.33;102442.88;5033923;28;20107;-73
2023/05/24 07:51:58;;;;;;;20.73;8.15;;;;;;;11.11;91.47;102433.31;5034635;28;20428;-72
2023/05/24 07:54:24;;;;;;;19.13;7.38;;;;;;;11.08;91.53;102445.50;5035930;28;20120;-73
2023/05/24 07:56:49;;;;;;;19.23;7.50;;;;;;;11.06;91.84;102442.03;5032845;28;20509;-72
2023/05/24 07:59:14;;;;;;;18.90;7.03;;;;;;;10.99;89.62;102436.81;5032230;28;20091;-72
2023/05/24 08:01:40;;;;;;;19.48;7.28;;;;;;;11.00;90.71;102435.91;5036054;28;20021;-72
2023/05/24 08:04:07;;;;;;;15.20;6.32;;;;;;;11.18;91.12;102431.56;5035397;28;20075;-72
2023/05/24 08:06:33;;;;;;;15.05;5.95;;;;;;;11.40;87.57;102437.63;5034962;28;20096;-73
2023/05/24 08:08:59;;;;;;;20.30;6.30;;;;;;;11.49;89.08;102422.81;5041955;28;20032;-72
2023/05/24 08:11:25;;;;;;;14.00;5.45;;;;;;;11.58;85.29;102432.41;5033277;28;20029;-72
2023/05/24 08:13:50;;;;;;;18.85;5.10;;;;;;;11.77;86.04;102435.84;5032087;28;20048;-73
2023/05/24 08:16:17;;;;;;;15.75;5.82;;;;;;;12.02;82.99;102433.16;5033534;28;20037;-72
2023/05/24 08:18:42;;;;;;;18.75;5.68;;;;;;;12.17;82.63;102427.88;5034616;28;20473;-72
2023/05/24 08:21:07;;;;;;;18.55;5.65;;;;;;;12.36;82.41;102423.38;5034279;28;20022;-73
2023/05/24 08:23:33;;;;;;;19.02;6.30;;;;;;;12.50;83.43;102429.41;5033718;28;20029;-73
2023/05/24 08:25:58;;;;;;;12.30;4.63;;;;;;;12.51;78.99;102432.91;5033698;28;20030;-73
2023/05/24 08:28:25;;;;;;;14.65;4.70;;;;;;;12.47;75.02;102423.34;5040863;28;20493;-73
2023/05/24 08:30:50;;;;;;;13.75;5.03;;;;;;;12.57;77.24;102427.63;5026964;28;20418;-72
2023/05/24 08:33:15;;;;;;;16.13;4.82;;;;;;;12.60;78.79;102425.84;5029836;28;20028;-72
2023/05/24 08:35:40;;;;;;;16.00;4.80;;;;;;;12.63;76.36;102422.38;5034121;28;20033;-73
2023/05/24 08:38:06;;;;;;;18.13;5.15;;;;;;;12.78;72.61;102418.75;5032786;28;20030;-73
2023/05/24 08:40:31;;;;;;;16.58;4.53;;;;;;;13.06;76.42;102419.41;5034172;28;20393;-73
2023/05/24 08:42:59;;;;;;;13.32;4.53;;;;;;;13.22;72.17;102409.66;5032125;28;20124;-73
2023/05/24 08:45:25;;;;;;;12.70;4.85;;;;;;;13.32;69.75;102413.97;5036064;28;20100;-72
2023/05/24 08:47:51;;;;;;;18.05;5.22;;;;;;;13.31;73.67;102413.09;5032418;28;20484;-72
2023/05/24 08:50:17;;;;;;;19.63;5.00;;;;;;;13.20;72.64;102407.03;5034631;28;20052;-72
2023/05/24 08:52:44;;;;;;;14.13;5.43;;;;;;;13.14;73.41;102401.88;5034899;28;20024;-72
2023/05/24 08:55:10;;;;;;;13.40;4.65;;;;;;;13.09;70.79;102407.16;5033731;28;20036;-72
2023/05/24 08:57:40;;;;;;;12.95;3.65;;;;;;;13.05;68.65;102407.22;5033368;28;20086;-73
2023/05/24 09:00:10;;;;;;;12.68;4.15;;;;;;;13.44;69.74;102402.47;5029333;28;20061;-72
2023/05/24 09:02:38;;;;;;;15.00;5.28;;;;;;;14.00;70.23;102395.72;5028792;28;20034;-72
2023/05/24 09:05:04;;;;;;;13.15;4.40;;;;;;;14.35;66.23;102391.72;5034190;28;20469;-72
2023/05/24 09:07:30;;;;;;;13.73;4.18;;;;;;;14.40;66.18;102389.91;5034152;28;20026;-72
2023/05/24 09:09:59;;;;;;;13.15;4.50;;;;;;;14.48;66.68;102388.91;5033635;28;20021;-73
2023/05/24 09:12:28;;;;;;;15.52;4.43;;;;;;;14.15;63.60;102386.75;5031480;28;20079;-73
2023/05/24 09:14:54;;;;;;;13.82;4.60;;;;;;;13.87;64.84;102395.00;5033805;28;20544;-72
2023/05/24 09:17:20;;;;;;;15.88;4.63;;;;;;;14.08;67.90;102396.47;5033506;28;20049;-73
2023/05/24 09:19:46;;;;;;;14.57;4.78;;;;;;;14.13;65.97;102396.44;5033783;28;20034;-73
2023/05/24 09:22:13;;;;;;;14.10;4.30;;;;;;;14.14;65.82;102403.41;5033103;28;20032;-73
2023/05/24 09:24:42;;;;;;;13.68;4.32;;;;;;;14.55;65.51;102392.34;5030784;28;20030;-73
2023/05/24 09:27:08;;;;;;;13.93;4.50;;;;;;;15.21;62.65;102401.75;5032833;28;20037;-73
2023/05/24 09:29:36;;;;;;;15.48;4.72;;;;;;;15.74;61.47;102396.41;5033156;28;20029;-73
2023/05/24 09:32:06;;;;;;;13.52;4.65;;;;;;;15.93;58.63;102395.13;5033539;28;20021;-73
2023/05/24 09:34:39;;;;;;;13.02;4.22;;;;;;;16.12;60.04;102390.31;5028688;28;20022;-73
2023/05/24 09:37:05;;;;;;;12.10;3.78;;;;;;;16.14;57.60;102392.00;5030726;28;20029;-74
2023/05/24 09:39:31;;;;;;;11.13;3.88;;;;;;;15.86;58.64;102385.63;5031323;28;20026;-73
2023/05/24 09:41:57;;;;;;;15.55;4.55;;;;;;;15.55;57.16;102377.47;5033436;28;20447;-74
2023/05/24 09:44:26;;;;;;;14.85;4.95;;;;;;;15.18;60.42;102391.31;5029094;28;20346;-73
2023/05/24 09:46:53;;;;;;;16.55;4.43;;;;;;;15.06;60.23;102389.75;5031509;28;20033;-73
2023/05/24 09:49:22;;;;;;;11.65;4.40;;;;;;;15.26;59.53;102396.41;5033310;28;20122;-74
2023/05/24 09:51:48;;;;;;;18.02;4.20;;;;;;;15.50;58.38;102379.28;5032267;28;20037;-75
2023/05/24 09:54:13;;;;;;;11.35;3.75;;;;;;;15.75;54.26;102379.72;5033297;28;20079;-74
2023/05/24 09:56:39;;;;;;;16.52;4.25;;;;;;;16.04;54.57;102376.47;5033216;28;20091;-73
2023/05/24 09:59:07;;;;;;;8.70;3.83;;;;;;;16.28;55.01;102381.16;5031632;28;20465;-74
2023/05/24 10:01:32;;;;;;;13.02;4.10;;;;;;;16.35;54.56;102385.41;5042252;28;20413;-74
2023/05/24 10:03:59;;;;;;;15.23;5.13;;;;;;;16.32;54.74;102380.22;5036622;28;20030;-73
2023/05/24 10:06:24;;;;;;;9.65;3.53;;;;;;;16.34;53.47;102375.75;5042519;28;20032;-71
2023/05/24 10:08:51;;;;;;;14.52;3.95;;;;;;;16.56;53.76;102370.00;5046790;28;20112;-72
2023/05/24 10:11:17;;;;;;;10.85;3.53;;;;;;;16.80;53.35;102381.72;5032497;28;20116;-71
2023/05/24 10:13:43;;;;;;;14.60;4.50;;;;;;;17.12;51.25;102375.63;5031914;28;20455;-71
2023/05/24 10:16:08;;;;;;;15.20;4.43;;;;;;;17.09;50.35;102371.31;5031803;28;20101;-71
2023/05/24 10:18:34;;;;;;;9.55;3.38;;;;;;;17.42;50.98;102370.44;5032083;28;20041;-71
2023/05/24 10:21:01;;;;;;;12.18;3.45;;;;;;;17.61;48.15;102362.88;5032292;28;20104;-71
2023/05/24 10:23:29;;;;;;;13.43;4.28;;;;;;;17.43;48.99;102366.88;5032884;28;20701;-71
2023/05/24 10:26:05;;;;;;;11.02;3.97;;;;;;;17.57;50.83;102363.88;5031993;28;20079;-71
2023/05/24 10:28:33;;;;;;;10.50;3.83;;;;;;;17.75;48.22;102361.56;5029474;28;20026;-71
2023/05/24 10:31:08;;;;;;;13.68;4.22;;;;;;;17.73;47.71;102367.81;5031956;28;20029;-71
2023/05/24 10:33:36;;;;;;;12.45;3.67;;;;;;;17.75;48.19;102360.69;5025479;28;20036;-71
2023/05/24 10:36:03;;;;;;;13.65;4.50;;;;;;;17.75;48.53;102368.59;5022665;28;20485;-71
2023/05/24 10:38:29;;;;;;;10.68;3.70;;;;;;;17.73;46.65;102371.31;5024739;28;20034;-71
2023/05/24 10:40:55;;;;;;;10.27;3.63;;;;;;;17.83;49.47;102366.66;5023023;28;20029;-72
2023/05/24 10:43:20;;;;;;;11.07;4.03;;;;;;;18.33;47.48;102360.72;5024518;28;20045;-71
2023/05/24 10:45:49;;;;;;;14.52;3.97;;;;;;;18.70;44.06;102353.34;5023531;28;20033;-77
2023/05/24 10:48:15;;;;;;;11.50;3.63;;;;;;;18.96;46.25;102362.16;5026856;28;20056;-70
2023/05/24 10:50:41;;;;;;;12.98;3.40;;;;;;;18.89;42.49;102361.53;5030617;28;20034;-71
2023/05/24 10:53:11;;;;;;;12.43;3.72;;;;;;;18.45;43.53;102357.69;5028479;28;20033;-71
2023/05/24 10:55:50;;;;;;;10.45;3.78;;;;;;;18.13;47.05;102350.81;5030405;28;20083;-74
2023/05/24 10:58:16;;;;;;;14.90;3.88;;;;;;;17.67;47.56;102370.63;5031325;28;20597;-71
2023/05/24 11:00:44;;;;;;;13.43;3.90;;;;;;;17.37;47.78;102362.66;5026871;28;20482;-71
2023/05/24 11:03:11;;;;;;;13.35;4.03;;;;;;;17.38;47.25;102356.47;5032137;28;20025;-71
2023/05/24 11:05:46;;;;;;;12.60;4.47;;;;;;;17.77;48.80;102359.78;5027258;28;20049;-71
2023/05/24 11:08:12;;;;;;;12.07;3.90;;;;;;;18.00;48.34;102358.22;5031275;28;20037;-71
2023/05/24 11:10:37;;;;;;;12.40;4.00;;;;;;;18.31;47.20;102350.22;5034003;28;20048;-71
2023/05/24 11:13:06;;;;;;;14.90;4.30;;;;;;;18.45;47.53;102353.28;5034524;28;20017;-71
2023/05/24 11:15:32;;;;;;;13.32;4.13;;;;;;;18.73;49.00;102360.31;5032483;28;20029;-72